Terminal Aerodrome Forecast
Issued by NWS

Current Version | Previous Version | Text Only | Print | Product List | Glossary On
Versions: 1 2 3 4 5 6 7 8 9 10 11 12 13 14
000
FTUS42 KMLB 010500
TAFSUA
TAF
KSUA 010530Z 0106/0206 19003KT P6SM SCT060
     FM011400 17006KT P6SM SCT030 SCT250
     FM011700 11010KT P6SM VCTS BKN035CB
     FM020000 15003KT P6SM SCT040 BKN100 OVC120=

USA.gov is the U.S. government's official web portal to all federal, state and local government web resources and services.